Time;durP1;ratioP1;P1;durP2;ratioP2;P2;SDS_P1;SDS_P2;PMS_P1;PMS_P2;Temp;Humidity;BMP_temperature;BMP_pressure;BME280_temperature;BME280_humidity;BME280_pressure;Samples;Min_cycle;Max_cycle;Signal;HPM_P1;HPM_P2
2023/06/10 00:02:05;;;;;;;0.50;0.50;;;20.00;37.20;;;;;;5004676;28;20174;-81
2023/06/10 00:04:31;;;;;;;0.60;0.60;;;20.00;37.10;;;;;;5020561;28;20158;-80
2023/06/10 00:06:57;;;;;;;0.70;0.60;;;20.00;37.10;;;;;;5021124;28;20159;-80
2023/06/10 00:09:22;;;;;;;1.08;0.77;;;19.90;37.10;;;;;;5021239;28;20202;-80
2023/06/10 00:11:48;;;;;;;0.60;0.60;;;20.00;37.10;;;;;;5004699;28;20179;-80
2023/06/10 00:14:14;;;;;;;0.57;0.57;;;20.00;37.10;;;;;;5020883;28;20499;-80
2023/06/10 00:16:39;;;;;;;0.47;0.47;;;19.90;37.00;;;;;;5004815;28;20565;-80
2023/06/10 00:19:07;;;;;;;0.52;0.52;;;19.90;37.00;;;;;;5036854;28;20186;-80
2023/06/10 00:21:37;;;;;;;1.40;0.90;;;19.90;37.00;;;;;;5020646;28;20557;-80
2023/06/10 00:24:05;;;;;;;1.15;0.60;;;20.00;36.90;;;;;;5022128;28;20174;-80
2023/06/10 00:26:31;;;;;;;0.70;0.60;;;20.00;37.00;;;;;;5004773;28;20657;-80
2023/06/10 00:28:59;;;;;;;1.42;0.57;;;19.90;36.90;;;;;;5020517;28;20167;-80
2023/06/10 00:31:26;;;;;;;0.60;0.60;;;20.00;36.90;;;;;;5021565;28;20182;-80
2023/06/10 00:33:52;;;;;;;0.70;0.70;;;20.00;36.80;;;;;;5021007;28;20155;-80
2023/06/10 00:36:18;;;;;;;0.50;0.50;;;19.90;36.90;;;;;;5005276;28;20177;-80
2023/06/10 00:38:43;;;;;;;0.90;0.50;;;20.00;37.00;;;;;;5021290;28;20633;-80
2023/06/10 00:41:09;;;;;;;0.95;0.70;;;20.00;36.90;;;;;;5037288;28;20186;-80
2023/06/10 00:43:35;;;;;;;0.60;0.50;;;20.00;36.80;;;;;;5038316;28;20641;-80
2023/06/10 00:46:00;;;;;;;1.00;0.57;;;20.00;36.90;;;;;;5019875;28;20595;-80
2023/06/10 00:48:26;;;;;;;0.82;0.60;;;20.00;36.90;;;;;;5020005;28;20633;-80
2023/06/10 00:50:52;;;;;;;0.75;0.60;;;20.00;36.90;;;;;;5037517;28;20159;-80
2023/06/10 00:53:18;;;;;;;0.47;0.47;;;19.90;37.00;;;;;;5038805;28;20162;-80
2023/06/10 00:55:44;;;;;;;0.60;0.60;;;19.90;36.90;;;;;;5040574;28;20696;-81
2023/06/10 00:58:10;;;;;;;0.70;0.70;;;20.00;37.00;;;;;;5040638;28;20162;-80
2023/06/10 01:00:36;;;;;;;0.80;0.70;;;20.00;36.90;;;;;;5040251;28;20229;-80
2023/06/10 01:03:02;;;;;;;0.80;0.60;;;19.90;37.60;;;;;;5023290;28;20220;-80
2023/06/10 01:05:28;;;;;;;0.70;0.68;;;20.00;36.90;;;;;;5022800;28;20190;-81
2023/06/10 01:08:18;;;;;;;0.70;0.70;;;20.00;37.00;;;;;;5039397;28;20162;-80
2023/06/10 01:10:52;;;;;;;1.85;0.90;;;20.00;37.00;;;;;;5039495;28;20708;-81
2023/06/10 01:13:20;;;;;;;0.63;0.63;;;19.90;36.90;;;;;;5039453;28;20147;-80
2023/06/10 01:15:46;;;;;;;1.35;0.82;;;20.00;36.90;;;;;;5023805;28;20166;-81
2023/06/10 01:18:19;;;;;;;1.35;0.75;;;19.90;37.00;;;;;;5007477;28;20710;-80
2023/06/10 01:20:47;;;;;;;0.80;0.70;;;20.00;37.00;;;;;;5009426;28;20166;-80
2023/06/10 01:23:13;;;;;;;0.68;0.60;;;20.00;36.90;;;;;;5024106;28;20635;-80
2023/06/10 01:25:44;;;;;;;1.45;0.80;;;19.90;36.90;;;;;;5040888;28;20199;-80
2023/06/10 01:28:27;;;;;;;0.88;0.70;;;19.90;37.00;;;;;;5025302;28;20170;-80
2023/06/10 01:31:13;;;;;;;1.60;0.80;;;19.90;36.90;;;;;;5042687;28;20151;-80
2023/06/10 01:33:43;;;;;;;0.70;0.70;;;19.90;37.00;;;;;;5026920;28;20163;-80
2023/06/10 01:36:08;;;;;;;1.05;0.65;;;19.90;36.90;;;;;;5040191;28;20268;-80
2023/06/10 01:38:39;;;;;;;0.82;0.75;;;19.90;37.00;;;;;;5041702;28;20609;-80
2023/06/10 01:41:05;;;;;;;0.75;0.52;;;19.90;37.00;;;;;;5039376;28;20173;-80
2023/06/10 01:43:34;;;;;;;0.52;0.50;;;19.90;37.10;;;;;;5022676;28;20175;-80
2023/06/10 01:46:00;;;;;;;1.17;0.80;;;19.90;37.10;;;;;;5022921;28;20231;-80
2023/06/10 01:48:27;;;;;;;0.60;0.60;;;19.90;37.10;;;;;;5039179;28;20155;-80
2023/06/10 01:50:52;;;;;;;0.60;0.57;;;19.90;37.10;;;;;;5023302;28;20202;-80
2023/06/10 01:53:18;;;;;;;0.75;0.70;;;19.90;37.10;;;;;;5006473;28;20178;-80
2023/06/10 01:55:44;;;;;;;0.70;0.60;;;19.90;37.10;;;;;;5022050;28;20669;-80
2023/06/10 01:58:10;;;;;;;1.67;0.77;;;19.90;37.10;;;;;;5037965;28;20159;-80
2023/06/10 02:00:35;;;;;;;0.82;0.60;;;19.90;37.10;;;;;;5038259;28;20167;-80
2023/06/10 02:03:01;;;;;;;1.20;0.60;;;19.90;37.10;;;;;;5005334;28;20235;-81
2023/06/10 02:05:27;;;;;;;1.20;1.00;;;19.90;37.10;;;;;;5021802;28;20191;-80
2023/06/10 02:07:53;;;;;;;0.65;0.65;;;19.90;37.20;;;;;;5021807;28;20258;-80
2023/06/10 02:10:19;;;;;;;0.93;0.80;;;19.90;37.10;;;;;;5054723;28;20171;-80
2023/06/10 02:12:45;;;;;;;1.15;0.90;;;19.90;37.20;;;;;;5039383;28;20222;-80
2023/06/10 02:15:10;;;;;;;3.58;1.17;;;19.90;37.20;;;;;;5022248;28;20159;-81
2023/06/10 02:17:37;;;;;;;0.90;0.80;;;19.90;37.20;;;;;;5022371;28;20155;-80
2023/06/10 02:20:06;;;;;;;1.10;0.70;;;19.90;37.30;;;;;;5040324;28;20158;-80
2023/06/10 02:22:33;;;;;;;0.80;0.80;;;19.90;37.20;;;;;;5040608;28;20159;-80
2023/06/10 02:24:58;;;;;;;1.08;0.80;;;19.90;37.30;;;;;;5021316;28;20551;-80
2023/06/10 02:27:24;;;;;;;1.25;0.88;;;19.90;37.20;;;;;;5005001;28;20173;-80
2023/06/10 02:29:50;;;;;;;1.50;0.80;;;19.80;37.20;;;;;;5005526;28;20626;-80
2023/06/10 02:32:15;;;;;;;1.35;0.90;;;19.90;37.30;;;;;;5005525;28;20351;-80
2023/06/10 02:34:42;;;;;;;1.75;0.95;;;19.90;37.30;;;;;;5006334;28;20166;-80
2023/06/10 02:37:10;;;;;;;1.75;0.90;;;19.80;37.30;;;;;;5022346;28;20174;-80
2023/06/10 02:39:35;;;;;;;1.77;0.88;;;19.90;37.30;;;;;;5039438;28;20220;-80
2023/06/10 02:42:01;;;;;;;1.63;0.80;;;19.80;37.30;;;;;;5021956;28;20167;-80
2023/06/10 02:44:27;;;;;;;1.38;0.95;;;19.80;37.30;;;;;;5054429;28;20197;-80
2023/06/10 02:46:52;;;;;;;0.85;0.70;;;19.90;37.50;;;;;;5038355;28;20567;-80
2023/06/10 02:49:21;;;;;;;2.25;0.80;;;19.80;37.30;;;;;;5022087;28;20159;-80
2023/06/10 02:51:47;;;;;;;1.35;0.90;;;19.80;37.40;;;;;;5038055;28;20225;-80
2023/06/10 02:54:12;;;;;;;0.80;0.75;;;19.80;37.40;;;;;;5021940;28;20595;-81
2023/06/10 02:56:41;;;;;;;1.88;0.90;;;19.80;37.30;;;;;;5021238;28;20530;-80
2023/06/10 02:59:08;;;;;;;2.03;0.95;;;19.80;37.40;;;;;;5004919;28;20626;-81
2023/06/10 03:01:36;;;;;;;1.00;0.77;;;19.80;37.40;;;;;;5005024;28;20178;-81
2023/06/10 03:04:05;;;;;;;1.25;0.82;;;19.80;37.40;;;;;;5035971;28;20155;-81
2023/06/10 03:06:33;;;;;;;1.40;1.10;;;19.80;37.40;;;;;;5002929;28;20214;-81
2023/06/10 03:08:59;;;;;;;1.27;0.90;;;19.70;37.40;;;;;;5020047;28;20213;-82
2023/06/10 03:11:25;;;;;;;1.30;0.90;;;19.80;37.50;;;;;;5035916;28;20513;-81
2023/06/10 03:13:53;;;;;;;1.55;0.90;;;19.80;37.50;;;;;;5036587;28;20665;-81
2023/06/10 03:16:19;;;;;;;1.20;0.88;;;19.80;37.40;;;;;;5035640;28;20544;-82
2023/06/10 03:18:45;;;;;;;1.05;0.80;;;19.90;37.50;;;;;;5018253;28;20173;-81
2023/06/10 03:21:11;;;;;;;1.58;1.10;;;19.80;37.40;;;;;;5018215;28;20173;-81
2023/06/10 03:23:37;;;;;;;1.60;1.00;;;19.80;37.40;;;;;;5002605;28;20159;-81
2023/06/10 03:26:04;;;;;;;2.25;1.00;;;19.90;37.50;;;;;;5002447;28;20202;-81
2023/06/10 03:28:30;;;;;;;1.25;0.90;;;19.80;37.40;;;;;;5019211;28;20151;-81
2023/06/10 03:30:56;;;;;;;1.38;1.10;;;19.90;37.50;;;;;;5018787;28;20152;-82
2023/06/10 03:33:22;;;;;;;1.98;1.20;;;19.80;37.40;;;;;;5018893;28;20167;-82
2023/06/10 03:35:48;;;;;;;1.15;0.82;;;19.90;37.50;;;;;;5019080;28;20166;-81
2023/06/10 03:38:14;;;;;;;1.10;0.93;;;19.90;37.60;;;;;;5019615;28;20193;-81
2023/06/10 03:40:40;;;;;;;2.53;0.98;;;19.90;37.50;;;;;;5019076;28;20178;-81
2023/06/10 03:43:05;;;;;;;1.77;1.23;;;19.90;37.50;;;;;;5035274;28;20159;-81
2023/06/10 03:45:31;;;;;;;1.05;0.90;;;19.90;37.50;;;;;;5019468;28;20300;-80
2023/06/10 03:47:57;;;;;;;1.40;0.90;;;19.90;37.50;;;;;;5053241;28;20539;-80
2023/06/10 03:50:24;;;;;;;1.98;1.10;;;19.90;37.50;;;;;;5019571;28;20151;-80
2023/06/10 03:52:50;;;;;;;1.17;0.70;;;19.90;37.50;;;;;;5003568;28;20170;-82
2023/06/10 03:55:16;;;;;;;1.55;0.93;;;19.90;37.50;;;;;;5036238;28;20253;-81
2023/06/10 03:57:43;;;;;;;2.35;0.90;;;19.90;37.50;;;;;;5018311;28;20495;-81
2023/06/10 04:00:11;;;;;;;1.75;1.00;;;19.90;37.50;;;;;;5018732;28;20151;-80
2023/06/10 04:02:37;;;;;;;1.80;1.10;;;19.90;37.50;;;;;;5036258;28;20170;-81
2023/06/10 04:05:04;;;;;;;1.00;0.90;;;19.90;37.50;;;;;;5002569;28;20198;-80
2023/06/10 04:07:30;;;;;;;1.63;1.10;;;19.90;37.50;;;;;;5035220;28;20266;-82
2023/06/10 04:09:56;;;;;;;1.65;0.90;;;19.90;37.50;;;;;;5018854;28;20159;-81
2023/06/10 04:12:23;;;;;;;1.85;1.02;;;19.90;37.50;;;;;;5018242;28;20192;-80
2023/06/10 04:14:48;;;;;;;0.85;0.80;;;19.90;37.60;;;;;;5034509;28;20267;-80
2023/06/10 04:17:15;;;;;;;1.67;0.90;;;19.90;37.50;;;;;;5034168;28;20552;-81
2023/06/10 04:19:40;;;;;;;1.33;1.10;;;19.90;37.60;;;;;;5034593;28;20173;-82
2023/06/10 04:22:07;;;;;;;1.88;0.98;;;20.00;37.50;;;;;;5036118;28;20155;-82
2023/06/10 04:24:32;;;;;;;1.65;1.00;;;19.90;37.50;;;;;;5034377;28;20209;-81
2023/06/10 04:27:00;;;;;;;1.58;0.98;;;19.90;37.50;;;;;;5036127;28;20155;-81
2023/06/10 04:29:26;;;;;;;1.73;1.00;;;20.00;37.50;;;;;;5021781;28;20170;-80
2023/06/10 04:31:51;;;;;;;1.10;0.90;;;20.00;37.50;;;;;;5040057;28;20262;-82
2023/06/10 04:34:17;;;;;;;1.38;0.93;;;19.90;37.40;;;;;;5055449;28;20632;-80
2023/06/10 04:36:42;;;;;;;1.80;1.20;;;20.00;37.50;;;;;;5038728;28;20155;-81
2023/06/10 04:39:08;;;;;;;1.52;1.05;;;19.90;37.50;;;;;;5038992;28;20153;-81
2023/06/10 04:41:35;;;;;;;2.22;1.08;;;20.00;37.50;;;;;;5039900;28;20546;-81
2023/06/10 04:44:00;;;;;;;1.83;1.17;;;20.00;37.50;;;;;;5038576;28;20200;-82
2023/06/10 04:46:26;;;;;;;1.33;1.00;;;20.00;37.50;;;;;;5037454;28;20617;-80
2023/06/10 04:48:53;;;;;;;2.25;1.02;;;20.00;37.50;;;;;;5037424;28;20253;-81
2023/06/10 04:51:18;;;;;;;4.78;1.20;;;20.00;37.50;;;;;;5021544;28;20610;-82
2023/06/10 04:53:44;;;;;;;1.90;1.33;;;20.10;37.50;;;;;;5037718;28;20162;-80
2023/06/10 04:56:10;;;;;;;0.88;0.80;;;20.10;37.50;;;;;;5037965;28;20514;-81
2023/06/10 04:58:37;;;;;;;3.25;1.02;;;20.10;37.40;;;;;;5038002;28;20167;-81
2023/06/10 05:01:02;;;;;;;2.42;1.27;;;20.00;37.50;;;;;;5038221;28;20174;-82
2023/06/10 05:03:30;;;;;;;2.28;1.25;;;20.00;37.50;;;;;;5005107;28;20538;-80
2023/06/10 05:05:56;;;;;;;1.95;1.23;;;20.10;37.50;;;;;;5022389;28;20190;-81
2023/06/10 05:08:21;;;;;;;2.35;1.15;;;20.10;37.50;;;;;;5037251;28;20158;-81
2023/06/10 05:10:47;;;;;;;3.08;1.40;;;20.10;37.50;;;;;;5039428;28;20222;-80
2023/06/10 05:13:13;;;;;;;2.15;1.10;;;20.00;37.50;;;;;;5021106;28;20443;-80
2023/06/10 05:15:38;;;;;;;1.67;1.23;;;20.10;37.40;;;;;;5039354;28;20290;-80
2023/06/10 05:18:04;;;;;;;2.78;1.20;;;20.10;37.50;;;;;;5038017;28;20163;-80
2023/06/10 05:20:30;;;;;;;2.42;1.38;;;20.00;37.40;;;;;;5038106;28;20174;-81
2023/06/10 05:22:55;;;;;;;3.03;1.38;;;20.10;37.60;;;;;;5022038;28;20170;-81
2023/06/10 05:25:21;;;;;;;3.03;1.55;;;20.20;37.50;;;;;;5038161;28;20199;-81
2023/06/10 05:27:47;;;;;;;5.00;2.50;;;20.20;37.30;;;;;;5038830;28;20569;-80
2023/06/10 05:30:12;;;;;;;2.72;1.38;;;20.20;37.40;;;;;;5022227;28;20163;-81
2023/06/10 05:32:38;;;;;;;6.10;2.95;;;20.20;37.50;;;;;;5005390;28;20159;-80
2023/06/10 05:35:04;;;;;;;4.03;2.58;;;20.30;37.50;;;;;;5020843;28;20285;-80
2023/06/10 05:37:30;;;;;;;7.55;3.10;;;20.20;37.40;;;;;;5034916;28;20155;-81
2023/06/10 05:39:55;;;;;;;3.03;1.60;;;20.20;37.50;;;;;;5037252;28;20215;-80
2023/06/10 05:42:21;;;;;;;4.00;2.28;;;20.20;37.50;;;;;;5003909;28;20217;-80
2023/06/10 05:44:47;;;;;;;7.88;4.55;;;20.30;37.80;;;;;;5019780;28;20233;-80
2023/06/10 05:47:12;;;;;;;5.55;2.97;;;20.20;38.20;;;;;;5020618;28;20499;-80
2023/06/10 05:49:38;;;;;;;6.80;3.20;;;20.40;37.80;;;;;;5036434;28;20159;-80
2023/06/10 05:52:04;;;;;;;6.47;2.90;;;20.30;37.60;;;;;;5035911;28;20182;-80
2023/06/10 05:54:30;;;;;;;7.35;3.08;;;20.30;37.60;;;;;;5019627;28;20543;-80
2023/06/10 05:56:55;;;;;;;8.07;3.80;;;20.40;37.70;;;;;;5035894;28;20175;-80
2023/06/10 05:59:22;;;;;;;4.45;2.88;;;20.40;38.00;;;;;;5037188;28;20151;-81
2023/06/10 06:01:49;;;;;;;5.18;2.67;;;20.40;37.80;;;;;;5036435;28;20155;-80
2023/06/10 06:04:15;;;;;;;3.17;1.95;;;20.50;37.60;;;;;;5036522;28;20188;-81
2023/06/10 06:06:41;;;;;;;5.88;2.88;;;20.40;37.40;;;;;;5002705;28;20677;-79
2023/06/10 06:09:07;;;;;;;6.05;2.17;;;20.30;38.10;;;;;;5019118;28;20158;-81
2023/06/10 06:11:34;;;;;;;5.78;2.72;;;20.20;38.30;;;;;;5018639;28;20199;-81
2023/06/10 06:13:59;;;;;;;8.15;2.90;;;20.10;39.20;;;;;;5034959;28;20155;-80
2023/06/10 06:16:25;;;;;;;2.40;1.70;;;20.20;38.80;;;;;;5019020;28;20205;-80
2023/06/10 06:18:51;;;;;;;4.82;2.45;;;20.20;38.20;;;;;;5002976;28;20205;-81
2023/06/10 06:21:16;;;;;;;5.07;3.05;;;20.10;38.50;;;;;;5001899;28;20602;-80
2023/06/10 06:23:42;;;;;;;5.93;3.00;;;20.10;38.70;;;;;;5016563;28;20609;-81
2023/06/10 06:26:07;;;;;;;4.88;2.67;;;20.10;38.80;;;;;;5032990;28;20197;-80
2023/06/10 06:28:33;;;;;;;6.28;3.35;;;20.00;38.90;;;;;;5017123;28;20564;-81
2023/06/10 06:30:59;;;;;;;4.35;2.67;;;20.10;39.20;;;;;;5016806;28;20209;-81
2023/06/10 06:33:26;;;;;;;4.07;2.35;;;20.10;38.60;;;;;;5001920;28;20163;-82
2023/06/10 06:35:52;;;;;;;4.85;2.80;;;20.10;38.50;;;;;;5019076;28;20161;-81
2023/06/10 06:38:17;;;;;;;5.13;2.42;;;20.10;38.90;;;;;;5018559;28;20515;-80
2023/06/10 06:40:44;;;;;;;6.07;3.33;;;20.00;39.20;;;;;;5018671;28;20155;-80
2023/06/10 06:43:10;;;;;;;6.70;3.78;;;20.10;39.70;;;;;;5017549;28;20163;-81
2023/06/10 06:45:35;;;;;;;5.70;3.55;;;20.10;39.70;;;;;;5000672;28;20236;-81
2023/06/10 06:48:01;;;;;;;7.07;4.00;;;20.20;39.60;;;;;;5017081;28;20198;-80
2023/06/10 06:50:26;;;;;;;7.85;3.75;;;20.10;39.60;;;;;;5035387;28;20208;-80
2023/06/10 06:52:52;;;;;;;6.57;3.70;;;20.00;39.90;;;;;;5001044;28;20178;-80
2023/06/10 06:55:18;;;;;;;5.35;3.65;;;20.00;39.70;;;;;;5016445;28;20529;-82
2023/06/10 06:57:44;;;;;;;6.18;3.55;;;20.10;40.10;;;;;;5033339;28;20159;-80
2023/06/10 07:00:11;;;;;;;7.15;3.28;;;20.20;40.00;;;;;;5015145;28;20178;-82
2023/06/10 07:02:36;;;;;;;9.65;4.68;;;20.00;40.00;;;;;;5032805;28;20159;-81
2023/06/10 07:05:03;;;;;;;8.10;4.50;;;20.10;40.40;;;;;;5030925;28;20194;-80
2023/06/10 07:07:29;;;;;;;7.18;4.00;;;20.10;40.70;;;;;;5031005;28;20163;-80
2023/06/10 07:09:54;;;;;;;5.95;3.72;;;20.00;40.80;;;;;;5014533;28;20167;-82
2023/06/10 07:12:23;;;;;;;7.93;4.32;;;20.00;40.80;;;;;;5030978;28;20632;-79
2023/06/10 07:14:52;;;;;;;8.02;4.03;;;20.00;40.80;;;;;;5031975;28;20151;-79
2023/06/10 07:17:17;;;;;;;5.40;3.38;;;20.00;40.80;;;;;;5032464;28;20669;-80
2023/06/10 07:19:44;;;;;;;9.65;3.58;;;20.00;40.90;;;;;;5032291;28;20190;-80
2023/06/10 07:22:10;;;;;;;7.30;3.50;;;20.10;41.00;;;;;;5032542;28;20250;-80
2023/06/10 07:24:35;;;;;;;5.22;3.00;;;20.10;40.80;;;;;;5030845;28;20167;-79
2023/06/10 07:27:01;;;;;;;5.60;3.22;;;20.10;40.90;;;;;;5032064;28;20192;-81
2023/06/10 07:29:27;;;;;;;4.50;2.75;;;20.10;40.90;;;;;;5031979;28;20275;-82
2023/06/10 07:31:53;;;;;;;4.57;2.90;;;20.00;41.10;;;;;;5031878;28;20155;-82
2023/06/10 07:34:19;;;;;;;4.38;2.63;;;20.00;41.00;;;;;;5046518;28;20154;-79
2023/06/10 07:36:44;;;;;;;4.75;2.70;;;20.00;41.10;;;;;;5031241;28;20212;-82
2023/06/10 07:39:10;;;;;;;4.13;2.60;;;20.00;40.90;;;;;;5032082;28;20159;-81
2023/06/10 07:41:36;;;;;;;3.88;2.30;;;20.00;40.90;;;;;;5032174;28;20213;-81
2023/06/10 07:44:02;;;;;;;5.88;2.53;;;20.00;41.10;;;;;;5030691;28;20159;-79
2023/06/10 07:46:28;;;;;;;4.07;2.03;;;20.00;41.20;;;;;;5031994;28;20229;-80
2023/06/10 07:48:54;;;;;;;3.92;2.35;;;20.00;41.10;;;;;;5047820;28;20166;-78
2023/06/10 07:51:20;;;;;;;2.92;2.00;;;20.00;41.00;;;;;;5048123;28;20238;-80
2023/06/10 07:53:46;;;;;;;4.43;2.08;;;20.00;41.00;;;;;;5030114;28;20520;-80
2023/06/10 07:56:11;;;;;;;3.47;2.13;;;20.00;41.00;;;;;;5030271;28;20197;-79
2023/06/10 07:58:37;;;;;;;4.32;2.28;;;20.10;41.00;;;;;;5046396;28;20269;-82
2023/06/10 08:01:02;;;;;;;3.63;1.60;;;20.10;40.80;;;;;;5046864;28;20155;-79
2023/06/10 08:03:28;;;;;;;3.13;1.77;;;20.20;41.00;;;;;;5035671;28;20611;-80
2023/06/10 08:05:54;;;;;;;2.80;1.95;;;20.10;40.60;;;;;;5035666;28;20656;-81
2023/06/10 08:08:19;;;;;;;5.05;2.35;;;20.00;40.60;;;;;;5035131;28;20628;-81
2023/06/10 08:10:45;;;;;;;2.55;1.83;;;19.80;40.70;;;;;;5035203;28;20189;-79
2023/06/10 08:13:11;;;;;;;3.15;1.80;;;19.90;41.00;;;;;;5035359;28;20159;-81
2023/06/10 08:15:37;;;;;;;3.08;1.65;;;19.90;40.90;;;;;;5035581;28;20211;-81
2023/06/10 08:18:02;;;;;;;2.88;1.83;;;19.90;40.80;;;;;;5036215;28;20181;-79
2023/06/10 08:20:28;;;;;;;2.10;1.67;;;20.00;40.70;;;;;;5036737;28;20162;-80
2023/06/10 08:22:54;;;;;;;2.58;1.65;;;20.10;40.40;;;;;;5035153;28;20162;-79
2023/06/10 08:25:21;;;;;;;2.15;1.40;;;20.00;40.40;;;;;;5035162;28;20625;-81
2023/06/10 08:27:47;;;;;;;1.88;1.35;;;20.00;40.50;;;;;;5035025;28;20159;-79
2023/06/10 08:30:14;;;;;;;3.10;1.75;;;20.00;40.50;;;;;;5034069;28;20272;-79
2023/06/10 08:32:39;;;;;;;2.33;1.48;;;20.00;40.30;;;;;;5034780;28;20174;-78
2023/06/10 08:35:05;;;;;;;2.90;1.48;;;20.00;40.10;;;;;;5034778;28;20167;-80
2023/06/10 08:37:31;;;;;;;1.63;1.15;;;20.00;40.10;;;;;;5035694;28;20159;-81
2023/06/10 08:39:56;;;;;;;4.18;1.38;;;20.00;40.20;;;;;;5034997;28;20516;-80
2023/06/10 08:42:24;;;;;;;2.50;1.50;;;19.90;40.10;;;;;;5034607;28;20205;-81
2023/06/10 08:44:55;;;;;;;2.83;1.30;;;19.90;40.00;;;;;;5017439;28;20241;-79
2023/06/10 08:47:20;;;;;;;2.35;1.33;;;20.00;39.90;;;;;;5017651;28;20246;-79
2023/06/10 08:49:46;;;;;;;2.53;1.40;;;20.00;39.80;;;;;;5035701;28;20559;-78
2023/06/10 08:52:15;;;;;;;2.15;1.40;;;20.10;39.50;;;;;;5035571;28;20164;-81
2023/06/10 08:54:42;;;;;;;1.85;1.08;;;20.10;39.40;;;;;;5049958;28;20538;-81
2023/06/10 08:57:08;;;;;;;1.90;1.20;;;20.10;39.80;;;;;;5016934;28;20177;-79
2023/06/10 08:59:33;;;;;;;1.98;1.20;;;20.10;39.00;;;;;;5034351;28;20151;-80
2023/06/10 09:01:59;;;;;;;1.75;1.33;;;20.10;39.10;;;;;;5033028;28;20159;-80
2023/06/10 09:04:25;;;;;;;1.77;1.20;;;20.10;39.20;;;;;;5034212;28;20159;-81
2023/06/10 09:06:51;;;;;;;2.55;1.40;;;20.10;39.20;;;;;;5034559;28;20198;-81
2023/06/10 09:09:17;;;;;;;2.03;1.35;;;20.20;39.00;;;;;;5035338;28;20159;-81
2023/06/10 09:11:43;;;;;;;2.67;1.40;;;20.20;39.10;;;;;;5035314;28;20155;-82
2023/06/10 09:14:08;;;;;;;1.38;1.20;;;20.20;39.10;;;;;;5034350;28;20158;-79
2023/06/10 09:16:34;;;;;;;2.08;1.27;;;20.10;39.20;;;;;;5034466;28;20163;-81
2023/06/10 09:19:00;;;;;;;1.30;1.20;;;20.10;39.30;;;;;;5017135;28;20574;-79
2023/06/10 09:21:25;;;;;;;1.30;1.05;;;20.10;39.00;;;;;;5035556;28;20162;-80
2023/06/10 09:23:51;;;;;;;2.33;1.27;;;20.20;38.80;;;;;;5035560;28;20155;-81
2023/06/10 09:26:18;;;;;;;1.50;0.95;;;20.30;38.70;;;;;;5034410;28;20301;-79
2023/06/10 09:28:44;;;;;;;3.22;1.20;;;20.20;38.30;;;;;;5033801;28;20579;-81
2023/06/10 09:31:11;;;;;;;1.80;1.10;;;20.20;38.60;;;;;;5033371;28;20254;-80
2023/06/10 09:33:38;;;;;;;1.42;1.08;;;20.10;38.80;;;;;;5032646;28;20202;-80
2023/06/10 09:36:04;;;;;;;1.45;1.10;;;20.10;38.80;;;;;;5032835;28;20272;-79
2023/06/10 09:38:31;;;;;;;1.38;1.20;;;20.10;38.80;;;;;;5032278;28;20589;-81
2023/06/10 09:40:57;;;;;;;1.80;1.10;;;20.00;38.80;;;;;;5032140;28;20173;-80
2023/06/10 09:43:23;;;;;;;3.22;1.30;;;20.00;38.80;;;;;;5031997;28;20159;-79
2023/06/10 09:45:49;;;;;;;1.15;1.08;;;20.10;38.50;;;;;;5031848;28;20712;-79
2023/06/10 09:48:15;;;;;;;0.95;0.90;;;20.10;38.60;;;;;;5033212;28;20309;-81
2023/06/10 09:50:43;;;;;;;1.00;0.90;;;20.20;38.60;;;;;;5050079;28;20270;-79
2023/06/10 09:53:10;;;;;;;3.42;1.10;;;20.10;38.50;;;;;;5049365;28;20253;-81
2023/06/10 09:55:38;;;;;;;1.33;1.10;;;20.20;38.30;;;;;;5016602;28;20163;-79
2023/06/10 09:58:03;;;;;;;1.55;1.00;;;20.30;38.30;;;;;;5033525;28;20163;-79
2023/06/10 10:00:32;;;;;;;1.98;0.95;;;20.30;38.20;;;;;;5034078;28;20170;-80
2023/06/10 10:02:58;;;;;;;1.15;0.93;;;20.20;38.20;;;;;;5034700;28;20147;-80
2023/06/10 10:05:25;;;;;;;1.77;0.82;;;20.20;38.30;;;;;;5034307;28;20199;-80
2023/06/10 10:07:51;;;;;;;1.42;1.00;;;20.10;38.30;;;;;;5033238;28;20586;-81
2023/06/10 10:10:17;;;;;;;1.50;0.93;;;20.30;38.10;;;;;;5035252;28;20174;-80
2023/06/10 10:12:43;;;;;;;1.48;0.90;;;20.30;37.70;;;;;;5051097;28;20264;-82
2023/06/10 10:15:10;;;;;;;0.88;0.77;;;20.30;37.60;;;;;;5035636;28;20617;-79
2023/06/10 10:17:55;;;;;;;1.10;1.00;;;20.40;38.00;;;;;;5035198;28;20167;-80
2023/06/10 10:20:24;;;;;;;0.95;0.82;;;20.40;37.80;;;;;;5039095;28;20155;-79
2023/06/10 10:22:50;;;;;;;1.23;1.00;;;20.40;38.20;;;;;;5037424;28;20524;-80
2023/06/10 10:25:18;;;;;;;2.08;0.90;;;20.30;37.70;;;;;;5048119;28;20275;-81
2023/06/10 10:27:48;;;;;;;1.42;0.80;;;20.30;37.60;;;;;;5015458;28;20621;-81
2023/06/10 10:30:14;;;;;;;1.77;0.90;;;20.40;37.60;;;;;;5031898;28;20193;-81
2023/06/10 10:33:04;;;;;;;1.02;0.70;;;20.40;37.70;;;;;;5031633;28;20158;-81
2023/06/10 10:35:31;;;;;;;1.25;0.80;;;20.40;37.60;;;;;;5032719;28;20171;-80
2023/06/10 10:37:57;;;;;;;1.30;0.70;;;20.40;37.60;;;;;;5048624;28;20645;-82
2023/06/10 10:40:24;;;;;;;1.42;0.80;;;20.50;37.40;;;;;;5032795;28;20159;-81
2023/06/10 10:42:52;;;;;;;2.80;0.82;;;20.50;37.40;;;;;;5032304;28;20155;-81
2023/06/10 10:45:17;;;;;;;2.10;0.80;;;20.50;37.30;;;;;;5046818;28;20590;-82
2023/06/10 10:47:44;;;;;;;5.00;0.80;;;20.60;37.90;;;;;;5032250;28;20159;-80
2023/06/10 10:50:15;;;;;;;3.42;0.88;;;20.60;37.30;;;;;;5030973;28;20155;-81
2023/06/10 10:53:02;;;;;;;1.30;0.80;;;20.50;37.30;;;;;;5032311;28;20245;-82
2023/06/10 10:55:28;;;;;;;3.03;0.93;;;20.50;37.30;;;;;;5032455;28;20162;-81
2023/06/10 10:58:05;;;;;;;2.88;0.90;;;20.40;37.20;;;;;;5032762;28;20212;-81
2023/06/10 11:00:35;;;;;;;2.60;0.68;;;20.50;37.40;;;;;;5033061;28;20158;-82
2023/06/10 11:03:07;;;;;;;0.90;0.80;;;20.50;37.60;;;;;;5031995;28;20570;-81
2023/06/10 11:05:49;;;;;;;0.85;0.73;;;20.50;38.00;;;;;;5033528;28;20580;-81
2023/06/10 11:08:35;;;;;;;2.10;0.70;;;20.50;38.10;;;;;;5032398;28;20519;-81
2023/06/10 11:11:02;;;;;;;0.82;0.80;;;20.60;38.20;;;;;;5032615;28;20206;-81
2023/06/10 11:13:30;;;;;;;1.02;0.60;;;20.50;37.70;;;;;;5032310;28;20181;-81
2023/06/10 11:15:57;;;;;;;1.50;0.63;;;20.40;37.70;;;;;;5032782;28;20169;-81
2023/06/10 11:18:27;;;;;;;1.88;0.70;;;20.30;37.80;;;;;;5031758;28;20716;-81
2023/06/10 11:20:58;;;;;;;0.85;0.85;;;20.30;37.90;;;;;;5032766;28;20652;-79
2023/06/10 11:23:35;;;;;;;1.02;0.77;;;20.30;38.00;;;;;;5033064;28;20570;-81
2023/06/10 11:26:21;;;;;;;0.95;0.70;;;20.30;38.20;;;;;;5032244;28;20293;-83
2023/06/10 11:29:08;;;;;;;1.45;0.60;;;20.30;38.50;;;;;;5030770;28;20245;-82
2023/06/10 11:31:39;;;;;;;2.60;0.50;;;20.30;38.80;;;;;;5031680;28;20165;-82
2023/06/10 11:34:06;;;;;;;1.17;0.68;;;20.40;38.70;;;;;;5031267;28;20583;-79
2023/06/10 11:36:33;;;;;;;2.17;0.73;;;20.40;38.70;;;;;;5032166;28;20638;-82
2023/06/10 11:39:01;;;;;;;1.00;0.70;;;20.50;38.90;;;;;;5032015;28;20258;-81
2023/06/10 11:41:27;;;;;;;1.42;0.90;;;20.50;38.60;;;;;;5031973;28;20163;-81
2023/06/10 11:43:57;;;;;;;1.80;0.70;;;20.50;38.30;;;;;;5030833;28;20170;-81
2023/06/10 11:46:23;;;;;;;1.63;0.65;;;20.50;38.70;;;;;;5031447;28;20235;-81
2023/06/10 11:48:52;;;;;;;1.38;0.80;;;20.40;39.30;;;;;;5032121;28;20190;-82
2023/06/10 11:51:18;;;;;;;0.77;0.63;;;20.40;39.70;;;;;;5032462;28;20167;-82
2023/06/10 11:53:45;;;;;;;0.95;0.70;;;20.30;39.80;;;;;;5049220;28;20591;-80
2023/06/10 11:56:10;;;;;;;2.85;0.73;;;20.40;39.70;;;;;;5030887;28;20699;-80
2023/06/10 11:58:36;;;;;;;1.67;0.73;;;20.40;39.70;;;;;;5031403;28;20155;-80
2023/06/10 12:01:02;;;;;;;1.02;0.70;;;20.40;40.10;;;;;;5016445;28;20162;-81
2023/06/10 12:03:36;;;;;;;0.60;0.60;;;20.40;40.20;;;;;;5032925;28;20155;-82
2023/06/10 12:06:04;;;;;;;0.95;0.70;;;20.40;40.20;;;;;;5019329;28;20231;-83
2023/06/10 12:08:32;;;;;;;1.33;0.60;;;20.30;40.20;;;;;;5051661;28;20234;-80
2023/06/10 12:10:58;;;;;;;0.85;0.80;;;20.40;40.40;;;;;;5035430;28;20237;-81
2023/06/10 12:13:27;;;;;;;1.38;0.75;;;20.40;40.40;;;;;;5034125;28;20617;-81
2023/06/10 12:15:53;;;;;;;0.70;0.52;;;20.40;40.40;;;;;;5033711;28;20166;-80
2023/06/10 12:18:19;;;;;;;2.58;0.60;;;20.40;40.40;;;;;;5016389;28;20250;-82
2023/06/10 12:20:45;;;;;;;2.28;0.80;;;20.50;40.20;;;;;;5049069;28;20485;-80
2023/06/10 12:23:11;;;;;;;0.60;0.57;;;20.40;40.20;;;;;;5031919;28;20656;-81
2023/06/10 12:25:38;;;;;;;0.65;0.65;;;20.40;40.40;;;;;;5014760;28;20583;-80
2023/06/10 12:28:03;;;;;;;0.70;0.63;;;20.40;40.60;;;;;;5013286;28;20273;-80
2023/06/10 12:30:29;;;;;;;0.63;0.63;;;20.40;40.70;;;;;;5029503;28;20155;-82
2023/06/10 12:32:55;;;;;;;0.95;0.73;;;20.40;40.70;;;;;;5031337;28;20213;-82
2023/06/10 12:35:26;;;;;;;1.45;0.70;;;20.30;40.70;;;;;;4996515;28;20171;-82
2023/06/10 12:37:57;;;;;;;0.80;0.80;;;20.30;40.70;;;;;;4996746;28;20179;-81
2023/06/10 12:40:27;;;;;;;2.25;0.85;;;20.30;40.80;;;;;;5012529;28;20281;-81
2023/06/10 12:42:53;;;;;;;0.60;0.60;;;20.30;40.90;;;;;;5012527;28;20251;-81
2023/06/10 12:45:39;;;;;;;0.82;0.60;;;20.40;41.10;;;;;;5012020;28;20309;-82
2023/06/10 12:48:08;;;;;;;1.75;0.70;;;20.40;41.00;;;;;;5030501;28;20191;-81